createdAt,value
2023-01-08T00:02:11.291Z,1.10
2023-01-08T00:04:41.087Z,1.10
2023-01-08T00:07:10.548Z,1.10
2023-01-08T00:09:42.744Z,1.10
2023-01-08T00:12:11.883Z,1.10
2023-01-08T00:14:41.281Z,1.10
2023-01-08T00:17:10.505Z,1.10
2023-01-08T00:19:42.515Z,1.20
2023-01-08T00:22:12.214Z,1.20
2023-01-08T00:24:43.008Z,1.20
2023-01-08T00:27:12.321Z,1.20
2023-01-08T00:29:42.160Z,1.10
2023-01-08T00:32:11.217Z,1.20
2023-01-08T00:34:40.471Z,1.20
2023-01-08T00:37:09.827Z,1.10
2023-01-08T00:39:39.119Z,1.20
2023-01-08T00:42:10.073Z,1.20
2023-01-08T00:44:40.012Z,1.20
2023-01-08T00:47:09.658Z,1.20
2023-01-08T00:49:41.739Z,1.10
2023-01-08T00:52:11.032Z,1.20
2023-01-08T00:54:41.336Z,1.10
2023-01-08T00:57:12.062Z,1.20
2023-01-08T00:59:41.329Z,1.20
2023-01-08T01:02:11.050Z,1.20
2023-01-08T01:04:40.382Z,1.20
2023-01-08T01:07:09.668Z,1.10
2023-01-08T01:09:39.295Z,1.20
2023-01-08T01:12:10.583Z,1.20
2023-01-08T01:14:41.491Z,1.20
2023-01-08T01:17:11.908Z,1.20
2023-01-08T01:19:41.205Z,1.20
2023-01-08T01:22:10.263Z,1.30
2023-01-08T01:24:39.510Z,1.30
2023-01-08T01:27:08.807Z,1.30
2023-01-08T01:29:38.081Z,1.30
2023-01-08T01:32:09.080Z,1.30
2023-01-08T01:34:38.320Z,1.30
2023-01-08T01:37:08.038Z,1.30
2023-01-08T01:39:37.166Z,1.30
2023-01-08T01:42:06.544Z,1.30
2023-01-08T01:44:42.654Z,1.10
2023-01-08T01:47:22.841Z,1.10
2023-01-08T01:49:56.647Z,1.20
2023-01-08T01:52:28.250Z,1.30
2023-01-08T01:54:58.837Z,1.20
2023-01-08T01:57:28.017Z,1.20
2023-01-08T01:59:58.778Z,1.20
2023-01-08T02:02:29.630Z,1.20
2023-01-08T02:04:58.650Z,1.20
2023-01-08T02:07:36.217Z,1.20
2023-01-08T02:12:43.577Z,1.30
2023-01-08T02:15:18.989Z,1.20
2023-01-08T02:17:55.655Z,1.30
2023-01-08T02:20:29.701Z,1.20
2023-01-08T02:23:16.333Z,1.20
2023-01-08T02:26:22.170Z,1.10
2023-01-08T02:28:55.702Z,1.20
2023-01-08T02:31:27.208Z,1.20
2023-01-08T02:33:56.870Z,1.20
2023-01-08T02:36:46.212Z,1.20
2023-01-08T02:39:33.635Z,1.20
2023-01-08T02:42:08.806Z,1.20
2023-01-08T02:44:49.265Z,1.10
2023-01-08T02:47:30.051Z,1.20
2023-01-08T02:50:14.536Z,1.30
2023-01-08T02:52:52.055Z,1.30
2023-01-08T02:55:23.947Z,1.30
2023-01-08T02:57:55.310Z,1.30
2023-01-08T03:00:25.498Z,1.30
2023-01-08T03:03:03.429Z,1.30
2023-01-08T03:05:32.645Z,1.30
2023-01-08T03:08:02.397Z,1.30
2023-01-08T03:10:33.611Z,1.20
2023-01-08T03:13:08.058Z,1.20
2023-01-08T03:15:49.641Z,1.10
2023-01-08T03:18:24.443Z,1.10
2023-01-08T03:20:54.181Z,1.10
2023-01-08T03:23:26.118Z,1.10
2023-01-08T03:25:56.191Z,1.10
2023-01-08T03:28:33.349Z,1.10
2023-01-08T03:31:03.480Z,1.20
2023-01-08T03:33:33.693Z,1.20
2023-01-08T03:36:09.996Z,1.20
2023-01-08T03:38:42.758Z,1.30
2023-01-08T03:41:15.345Z,1.20
2023-01-08T03:43:58.368Z,1.20
2023-01-08T03:46:33.346Z,1.20
2023-01-08T03:49:03.747Z,1.30
2023-01-08T03:51:42.194Z,1.30
2023-01-08T03:54:15.680Z,1.40
2023-01-08T03:56:44.867Z,1.40
2023-01-08T03:59:17.072Z,1.30
2023-01-08T04:01:46.535Z,1.40
2023-01-08T04:04:16.142Z,1.40
2023-01-08T04:06:45.827Z,1.40
2023-01-08T04:09:15.138Z,1.40
2023-01-08T04:11:44.735Z,1.40
2023-01-08T04:14:15.585Z,1.40
2023-01-08T04:16:44.865Z,1.40
2023-01-08T04:19:14.288Z,1.50
2023-01-08T04:21:43.479Z,1.50
2023-01-08T04:24:15.986Z,1.50
2023-01-08T04:26:45.365Z,1.50
2023-01-08T04:29:16.223Z,1.50
2023-01-08T04:31:45.594Z,1.60
2023-01-08T04:34:16.126Z,1.60
2023-01-08T04:36:45.363Z,1.60
2023-01-08T04:39:14.763Z,1.50
2023-01-08T04:41:43.929Z,1.40
2023-01-08T04:44:13.263Z,1.50
2023-01-08T04:46:43.963Z,1.60
2023-01-08T04:49:15.665Z,1.60
2023-01-08T04:51:44.865Z,1.50
2023-01-08T04:54:14.036Z,1.50
2023-01-08T04:56:43.116Z,1.50
2023-01-08T04:59:12.537Z,1.50
2023-01-08T05:01:43.243Z,1.60
2023-01-08T05:04:13.569Z,1.50
2023-01-08T05:06:42.799Z,1.60
2023-01-08T05:09:12.830Z,1.50
2023-01-08T05:11:43.535Z,1.60
2023-01-08T05:14:13.010Z,1.60
2023-01-08T05:16:44.470Z,1.70
2023-01-08T05:19:13.746Z,1.70
2023-01-08T05:21:43.009Z,1.60
2023-01-08T05:24:12.496Z,1.70
2023-01-08T05:26:41.693Z,1.60
2023-01-08T05:29:12.130Z,1.60
2023-01-08T05:31:42.792Z,1.60
2023-01-08T05:34:12.330Z,1.70
2023-01-08T05:36:42.332Z,1.70
2023-01-08T05:39:11.568Z,1.60
2023-01-08T05:41:41.026Z,1.70
2023-01-08T05:44:11.460Z,1.60
2023-01-08T05:46:40.847Z,1.70
2023-01-08T05:49:11.801Z,1.70
2023-01-08T05:51:40.986Z,1.70
2023-01-08T05:54:10.204Z,1.70
2023-01-08T05:56:39.367Z,1.70
2023-01-08T05:59:08.605Z,1.60
2023-01-08T06:01:37.933Z,1.70
2023-01-08T06:04:07.409Z,1.70
2023-01-08T06:06:38.365Z,1.60
2023-01-08T06:09:07.604Z,1.60
2023-01-08T06:11:36.805Z,1.60
2023-01-08T06:14:06.043Z,1.60
2023-01-08T06:16:35.197Z,1.70
2023-01-08T06:19:04.401Z,1.70
2023-01-08T06:21:33.624Z,1.70
2023-01-08T06:24:04.354Z,1.60
2023-01-08T06:26:33.548Z,1.50
2023-01-08T06:29:03.210Z,1.60
2023-01-08T06:31:32.576Z,1.70
2023-01-08T06:34:01.840Z,1.70
2023-01-08T06:36:31.106Z,1.60
2023-01-08T06:39:00.223Z,1.60
2023-01-08T06:41:30.939Z,1.70
2023-01-08T06:44:00.084Z,1.70
2023-01-08T06:46:29.529Z,1.70
2023-01-08T06:48:58.693Z,1.70
2023-01-08T06:51:27.928Z,1.70
2023-01-08T06:53:57.249Z,1.80
2023-01-08T06:56:26.428Z,1.60
2023-01-08T06:58:57.179Z,1.70
2023-01-08T07:01:26.575Z,1.70
2023-01-08T07:03:55.797Z,1.80
2023-01-08T07:06:25.546Z,1.70
2023-01-08T07:08:54.747Z,1.80
2023-01-08T07:11:23.926Z,1.80
2023-01-08T07:13:53.216Z,1.80
2023-01-08T07:16:24.122Z,1.90
2023-01-08T07:18:53.456Z,1.80
2023-01-08T07:21:23.231Z,1.80
2023-01-08T07:23:55.224Z,1.90
2023-01-08T07:26:25.039Z,1.90
2023-01-08T07:28:54.604Z,1.90
2023-01-08T07:31:25.568Z,1.90
2023-01-08T07:33:54.878Z,1.90
2023-01-08T07:36:24.863Z,1.90
2023-01-08T07:38:54.079Z,1.80
2023-01-08T07:41:23.333Z,1.80
2023-01-08T07:43:52.511Z,1.80
2023-01-08T07:46:23.385Z,1.70
2023-01-08T07:49:02.043Z,1.80
2023-01-08T07:51:31.572Z,1.80
2023-01-08T07:54:01.975Z,1.90
2023-01-08T07:56:31.510Z,2.00
2023-01-08T07:59:00.894Z,2.10
2023-01-08T08:01:30.166Z,2.10
2023-01-08T08:04:00.789Z,2.20
2023-01-08T08:06:30.308Z,2.00
2023-01-08T08:09:00.492Z,2.00
2023-01-08T08:11:29.785Z,2.00
2023-01-08T08:13:59.172Z,2.00
2023-01-08T08:16:28.369Z,2.00
2023-01-08T08:18:59.439Z,2.00
2023-01-08T08:21:31.213Z,2.00
2023-01-08T08:24:00.469Z,2.00
2023-01-08T08:26:29.620Z,2.00
2023-01-08T08:28:58.810Z,2.10
2023-01-08T08:31:28.009Z,2.20
2023-01-08T08:33:57.151Z,2.20
2023-01-08T08:36:32.511Z,2.20
2023-01-08T08:39:01.718Z,2.30
2023-01-08T08:41:31.215Z,2.50
2023-01-08T08:44:00.306Z,2.70
2023-01-08T08:46:30.664Z,2.70
2023-01-08T08:48:59.823Z,2.60
2023-01-08T08:51:29.145Z,2.60
2023-01-08T08:53:59.644Z,2.40
2023-01-08T08:56:30.280Z,2.40
2023-01-08T08:58:59.683Z,2.50
2023-01-08T09:01:28.873Z,2.40
2023-01-08T09:03:58.131Z,2.40
2023-01-08T09:06:28.220Z,2.50
2023-01-08T09:09:00.156Z,2.60
2023-01-08T09:11:29.412Z,2.50
2023-01-08T09:13:58.549Z,2.60
2023-01-08T09:16:27.807Z,2.50
2023-01-08T09:18:57.550Z,2.70
2023-01-08T09:21:26.978Z,3.00
2023-01-08T09:23:56.053Z,3.10
2023-01-08T09:26:29.079Z,3.10
2023-01-08T09:28:58.459Z,3.30
2023-01-08T09:31:28.064Z,3.40
2023-01-08T09:33:57.185Z,3.40
2023-01-08T09:36:26.400Z,3.40
2023-01-08T09:38:55.592Z,3.40
2023-01-08T09:41:29.652Z,3.30
2023-01-08T09:44:01.450Z,3.30
2023-01-08T09:46:31.634Z,3.40
2023-01-08T09:49:03.924Z,3.40
2023-01-08T09:51:37.032Z,3.30
2023-01-08T09:54:07.931Z,3.50
2023-01-08T09:56:39.523Z,3.50
2023-01-08T09:59:09.001Z,3.40
2023-01-08T10:01:40.529Z,3.20
2023-01-08T10:04:15.902Z,3.30
2023-01-08T10:06:52.467Z,3.40
2023-01-08T10:09:25.550Z,3.40
2023-01-08T10:11:59.702Z,3.20
2023-01-08T10:14:32.790Z,3.10
2023-01-08T10:17:05.863Z,3.20
2023-01-08T10:19:38.590Z,3.30
2023-01-08T10:22:15.237Z,3.60
2023-01-08T10:24:45.631Z,3.40
2023-01-08T10:27:19.997Z,3.60
2023-01-08T10:29:51.428Z,3.60
2023-01-08T10:32:25.308Z,3.40
2023-01-08T10:34:57.501Z,3.50
2023-01-08T10:37:29.754Z,3.60
2023-01-08T10:40:09.180Z,3.40
2023-01-08T10:42:41.347Z,3.50
2023-01-08T10:45:21.044Z,3.60
2023-01-08T10:47:53.346Z,3.50
2023-01-08T10:50:25.044Z,3.30
2023-01-08T10:52:56.379Z,3.30
2023-01-08T10:55:27.724Z,3.30
2023-01-08T10:58:04.913Z,3.30
2023-01-08T11:00:40.915Z,3.30
2023-01-08T11:03:20.614Z,3.40
2023-01-08T11:05:50.409Z,3.20
2023-01-08T11:08:23.035Z,3.20
2023-01-08T11:10:57.495Z,3.20
2023-01-08T11:13:32.301Z,3.10
2023-01-08T11:16:05.840Z,3.20
2023-01-08T11:18:44.193Z,3.20
2023-01-08T11:21:23.053Z,3.20
2023-01-08T11:24:13.301Z,3.30
2023-01-08T11:26:47.830Z,3.30
2023-01-08T11:29:23.815Z,3.30
2023-01-08T11:32:01.676Z,3.40
2023-01-08T11:34:37.935Z,3.40
2023-01-08T11:37:13.487Z,3.50
2023-01-08T11:39:43.509Z,3.50
2023-01-08T11:42:28.586Z,3.30
2023-01-08T11:45:14.934Z,3.30
2023-01-08T11:47:58.581Z,3.30
2023-01-08T11:50:30.922Z,3.30
2023-01-08T11:53:15.508Z,3.30
2023-01-08T11:55:52.922Z,3.50
2023-01-08T11:58:28.875Z,3.50
2023-01-08T12:01:20.482Z,3.60
2023-01-08T12:03:56.587Z,3.50
2023-01-08T12:06:37.028Z,3.70
2023-01-08T12:09:21.002Z,3.40
2023-01-08T12:11:58.473Z,3.40
2023-01-08T12:14:43.450Z,3.50
2023-01-08T12:17:42.147Z,3.30
2023-01-08T12:20:22.866Z,3.30
2023-01-08T12:23:02.317Z,3.00
2023-01-08T12:25:52.901Z,2.80
2023-01-08T12:28:41.419Z,2.70
2023-01-08T12:31:28.880Z,2.60
2023-01-08T12:34:05.698Z,2.50
2023-01-08T12:36:41.751Z,2.30
2023-01-08T12:39:15.667Z,2.20
2023-01-08T12:41:48.889Z,2.20
2023-01-08T12:44:24.362Z,2.10
2023-01-08T12:46:57.265Z,2.10
2023-01-08T12:49:36.714Z,2.00
2023-01-08T12:52:13.759Z,2.00
2023-01-08T12:54:50.746Z,1.90
2023-01-08T12:57:31.050Z,1.90
2023-01-08T13:00:07.589Z,1.80
2023-01-08T13:02:44.132Z,1.80
2023-01-08T13:05:16.395Z,1.70
2023-01-08T13:07:47.972Z,1.70
2023-01-08T13:10:34.197Z,1.70
2023-01-08T13:13:04.523Z,1.60
2023-01-08T13:15:34.949Z,1.50
2023-01-08T13:18:16.751Z,1.40
2023-01-08T13:20:58.441Z,1.30
2023-01-08T13:23:30.071Z,1.20
2023-01-08T13:26:00.822Z,1.20
2023-01-08T13:28:32.514Z,1.10
2023-01-08T13:31:11.617Z,1.20
2023-01-08T13:33:43.643Z,1.20
2023-01-08T13:36:23.758Z,1.30
2023-01-08T13:39:20.664Z,1.40
2023-01-08T13:42:01.131Z,1.60
2023-01-08T13:44:32.325Z,1.70
2023-01-08T13:47:03.888Z,1.60
2023-01-08T13:49:37.327Z,1.60
2023-01-08T13:52:08.467Z,1.70
2023-01-08T13:54:40.693Z,1.70
2023-01-08T13:57:16.861Z,1.70
2023-01-08T13:59:51.430Z,1.60
2023-01-08T14:02:30.170Z,1.50
2023-01-08T14:05:00.833Z,1.50
2023-01-08T14:07:31.332Z,1.50
2023-01-08T14:10:10.068Z,1.60
2023-01-08T14:12:39.240Z,1.60
2023-01-08T14:15:12.265Z,1.50
2023-01-08T14:17:44.883Z,1.50
2023-01-08T14:20:15.045Z,1.50
2023-01-08T14:22:45.799Z,1.60
2023-01-08T14:25:20.420Z,1.40
2023-01-08T14:28:01.712Z,1.50
2023-01-08T14:30:31.353Z,1.20
2023-01-08T14:33:02.232Z,1.30
2023-01-08T14:35:36.490Z,1.20
2023-01-08T14:38:07.389Z,1.20
2023-01-08T14:40:44.615Z,1.30
2023-01-08T14:43:15.504Z,1.30
2023-01-08T14:45:50.227Z,1.30
2023-01-08T14:48:24.462Z,1.20
2023-01-08T14:51:05.611Z,1.20
2023-01-08T14:53:38.481Z,1.20
2023-01-08T14:56:09.057Z,1.30
2023-01-08T14:58:40.199Z,1.30
2023-01-08T15:01:15.815Z,1.30
2023-01-08T15:03:46.719Z,1.20
2023-01-08T15:06:26.714Z,1.10
2023-01-08T15:08:58.574Z,1.10
2023-01-08T15:11:31.249Z,1.10
2023-01-08T15:14:00.888Z,1.00
2023-01-08T15:16:33.272Z,1.00
2023-01-08T15:19:09.319Z,1.20
2023-01-08T15:21:39.223Z,1.10
2023-01-08T15:24:16.994Z,1.10
2023-01-08T15:26:46.632Z,1.10
2023-01-08T15:29:20.099Z,1.10
2023-01-08T15:31:51.142Z,1.10
2023-01-08T15:34:22.303Z,1.10
2023-01-08T15:36:51.495Z,1.00
2023-01-08T15:39:22.280Z,1.00
2023-01-08T15:42:09.095Z,0.90
2023-01-08T15:44:38.320Z,1.00
2023-01-08T15:47:07.669Z,1.00
2023-01-08T15:49:36.827Z,1.00
2023-01-08T15:52:06.725Z,1.20
2023-01-08T15:54:39.483Z,1.10
2023-01-08T15:57:11.636Z,1.00
2023-01-08T15:59:40.795Z,1.10
2023-01-08T16:02:13.791Z,1.10
2023-01-08T16:04:43.252Z,1.20
2023-01-08T16:07:12.666Z,1.10
2023-01-08T16:09:43.379Z,1.10
2023-01-08T16:12:13.111Z,1.10
2023-01-08T16:14:42.948Z,1.10
2023-01-08T16:17:12.500Z,1.10
2023-01-08T16:19:41.868Z,1.10
2023-01-08T16:22:11.678Z,1.10
2023-01-08T16:24:43.229Z,1.10
2023-01-08T16:27:12.347Z,1.10
2023-01-08T16:29:42.638Z,1.20
2023-01-08T16:32:12.654Z,1.20
2023-01-08T16:34:41.977Z,1.10
2023-01-08T16:37:12.534Z,1.20
2023-01-08T16:39:47.442Z,1.20
2023-01-08T16:42:16.891Z,1.30
2023-01-08T16:44:46.542Z,1.30
2023-01-08T16:47:16.790Z,1.30
2023-01-08T16:49:46.591Z,1.30
2023-01-08T16:52:17.921Z,1.30
2023-01-08T16:54:49.611Z,1.30
2023-01-08T16:57:19.668Z,1.30
2023-01-08T16:59:49.309Z,1.30
2023-01-08T17:02:19.632Z,1.30
2023-01-08T17:04:49.575Z,1.30
2023-01-08T17:07:19.003Z,1.30
2023-01-08T17:09:50.924Z,1.30
2023-01-08T17:12:23.232Z,1.20
2023-01-08T17:14:54.197Z,1.20
2023-01-08T17:17:23.527Z,1.30
2023-01-08T17:19:53.234Z,1.30
2023-01-08T17:22:22.992Z,1.30
2023-01-08T17:24:54.113Z,1.40
2023-01-08T17:27:26.436Z,1.40
2023-01-08T17:29:55.973Z,1.30
2023-01-08T17:32:26.506Z,1.40
2023-01-08T17:34:56.859Z,1.30
2023-01-08T17:37:27.171Z,1.40
2023-01-08T17:39:58.816Z,1.40
2023-01-08T17:42:29.492Z,1.30
2023-01-08T17:45:01.878Z,1.30
2023-01-08T17:47:33.494Z,1.30
2023-01-08T17:50:06.101Z,1.40
2023-01-08T17:52:36.189Z,1.40
2023-01-08T17:55:10.290Z,1.40
2023-01-08T17:57:40.402Z,1.40
2023-01-08T18:00:11.647Z,1.30
2023-01-08T18:02:41.101Z,1.40
2023-01-08T18:05:11.817Z,1.40
2023-01-08T18:07:43.840Z,1.40
2023-01-08T18:10:17.345Z,1.30
2023-01-08T18:12:47.043Z,1.30
2023-01-08T18:15:17.430Z,1.40
2023-01-08T18:17:46.586Z,1.40
2023-01-08T18:20:17.233Z,1.40
2023-01-08T18:22:47.560Z,1.40
2023-01-08T18:25:19.163Z,1.30
2023-01-08T18:27:48.911Z,1.40
2023-01-08T18:30:19.810Z,1.30
2023-01-08T18:32:50.553Z,1.40
2023-01-08T18:35:20.297Z,1.40
2023-01-08T18:37:51.618Z,1.30
2023-01-08T18:40:23.209Z,1.40
2023-01-08T18:42:53.904Z,1.30
2023-01-08T18:45:23.451Z,1.40
2023-01-08T18:47:55.909Z,1.30
2023-01-08T18:50:27.549Z,1.40
2023-01-08T18:52:58.313Z,1.40
2023-01-08T18:55:30.238Z,1.40
2023-01-08T18:58:01.267Z,1.40
2023-01-08T19:00:31.399Z,1.40
2023-01-08T19:03:03.739Z,1.40
2023-01-08T19:05:35.805Z,1.50
2023-01-08T19:08:07.050Z,1.30
2023-01-08T19:10:41.030Z,1.40
2023-01-08T19:13:11.047Z,1.40
2023-01-08T19:15:40.921Z,1.40
2023-01-08T19:18:10.648Z,1.40
2023-01-08T19:20:44.046Z,1.40
2023-01-08T19:23:16.451Z,1.50
2023-01-08T19:25:48.408Z,1.50
2023-01-08T19:28:22.673Z,1.40
2023-01-08T19:30:58.070Z,1.40
2023-01-08T19:33:28.612Z,1.40
2023-01-08T19:36:03.680Z,1.40
2023-01-08T19:38:33.393Z,1.50
2023-01-08T19:41:04.837Z,1.40
2023-01-08T19:43:42.874Z,1.40
2023-01-08T19:46:15.762Z,1.40
2023-01-08T19:48:46.246Z,1.50
2023-01-08T19:51:16.297Z,1.50
2023-01-08T19:53:46.562Z,1.60
2023-01-08T19:56:18.979Z,1.50
2023-01-08T19:58:49.349Z,1.50
2023-01-08T20:01:24.553Z,1.60
2023-01-08T20:03:57.154Z,1.50
2023-01-08T20:06:30.188Z,1.60
2023-01-08T20:09:02.079Z,1.50
2023-01-08T20:11:37.974Z,1.50
2023-01-08T20:14:09.821Z,1.60
2023-01-08T20:16:41.227Z,1.60
2023-01-08T20:19:13.545Z,1.60
2023-01-08T20:21:44.360Z,1.70
2023-01-08T20:24:16.316Z,1.70
2023-01-08T20:26:49.785Z,1.70
2023-01-08T20:29:19.879Z,1.70
2023-01-08T20:31:57.167Z,1.70
2023-01-08T20:34:27.548Z,1.70
2023-01-08T20:36:58.298Z,1.70
2023-01-08T20:39:29.929Z,1.80
2023-01-08T20:42:05.041Z,1.60
2023-01-08T20:44:37.092Z,1.60
2023-01-08T20:47:08.083Z,1.60
2023-01-08T20:49:38.981Z,1.70
2023-01-08T20:52:08.660Z,1.70
2023-01-08T20:54:37.866Z,1.70
2023-01-08T20:57:09.374Z,1.70
2023-01-08T20:59:39.449Z,1.70
2023-01-08T21:02:11.694Z,1.80
2023-01-08T21:04:41.973Z,1.70
2023-01-08T21:07:12.026Z,1.70
2023-01-08T21:09:41.642Z,1.70
2023-01-08T21:12:12.536Z,1.80
2023-01-08T21:14:41.840Z,1.70
2023-01-08T21:17:11.718Z,1.80
2023-01-08T21:19:41.148Z,1.80
2023-01-08T21:22:10.402Z,1.80
2023-01-08T21:24:40.124Z,1.80
2023-01-08T21:27:10.874Z,1.80
2023-01-08T21:29:40.261Z,1.80
2023-01-08T21:32:09.719Z,1.70
2023-01-08T21:34:38.984Z,1.80
2023-01-08T21:37:09.215Z,1.80
2023-01-08T21:39:39.034Z,1.80
2023-01-08T21:42:25.525Z,1.80
2023-01-08T21:45:13.493Z,1.90
2023-01-08T21:47:43.065Z,1.90
2023-01-08T21:50:13.437Z,1.80
2023-01-08T21:53:08.503Z,1.90
2023-01-08T21:55:37.610Z,2.00
2023-01-08T21:58:07.232Z,2.00
2023-01-08T22:00:38.827Z,2.00
2023-01-08T22:03:08.279Z,2.00
2023-01-08T22:05:37.461Z,1.90
2023-01-08T22:08:07.354Z,1.80
2023-01-08T22:10:36.625Z,1.80
2023-01-08T22:13:07.854Z,1.80
2023-01-08T22:15:40.287Z,1.90
2023-01-08T22:18:09.554Z,1.90
2023-01-08T22:20:38.810Z,1.90
2023-01-08T22:23:08.015Z,1.90
2023-01-08T22:25:40.874Z,1.80
2023-01-08T22:28:12.026Z,1.80
2023-01-08T22:30:42.784Z,1.80
2023-01-08T22:33:11.969Z,1.80
2023-01-08T22:35:41.064Z,1.90
2023-01-08T22:38:10.189Z,1.90
2023-01-08T22:40:40.698Z,1.90
2023-01-08T22:43:09.970Z,1.80
2023-01-08T22:45:39.506Z,1.90
2023-01-08T22:48:10.138Z,1.90
2023-01-08T22:50:39.323Z,1.90
2023-01-08T22:53:08.515Z,1.80
2023-01-08T22:55:37.703Z,1.90
2023-01-08T22:58:06.823Z,1.80
2023-01-08T23:00:38.512Z,1.90
2023-01-08T23:03:09.578Z,1.90
2023-01-08T23:05:38.962Z,1.80
2023-01-08T23:08:09.177Z,1.90
2023-01-08T23:10:38.690Z,2.00
2023-01-08T23:13:08.070Z,2.00
2023-01-08T23:15:37.548Z,2.00
2023-01-08T23:18:06.714Z,2.10
2023-01-08T23:20:37.451Z,2.10
2023-01-08T23:23:06.509Z,2.10
2023-01-08T23:25:35.886Z,2.00
2023-01-08T23:28:05.051Z,2.00
2023-01-08T23:30:34.403Z,1.90
2023-01-08T23:33:03.670Z,1.90
2023-01-08T23:35:33.094Z,1.90
2023-01-08T23:38:03.711Z,2.00
2023-01-08T23:40:32.977Z,2.00
2023-01-08T23:43:02.177Z,1.90
2023-01-08T23:45:31.319Z,1.80
2023-01-08T23:48:00.414Z,1.90
2023-01-08T23:50:29.755Z,1.90
2023-01-08T23:52:59.025Z,1.90
2023-01-08T23:55:30.360Z,2.00
2023-01-08T23:58:00.156Z,2.00
